createdAt,value
2018-09-02T00:00:03.416Z,24.20
2018-09-02T00:05:06.812Z,24.20
2018-09-02T00:10:10.172Z,24.20
2018-09-02T00:15:13.772Z,24.20
2018-09-02T00:20:17.018Z,24.20
2018-09-02T00:25:20.539Z,24.20
2018-09-02T00:30:24.114Z,24.20
2018-09-02T00:35:27.289Z,24.20
2018-09-02T00:40:30.590Z,24.10
2018-09-02T00:45:33.986Z,24.10
2018-09-02T00:50:37.378Z,24.10
2018-09-02T00:55:41.398Z,24.10
2018-09-02T01:00:44.858Z,24.10
2018-09-02T01:05:49.497Z,24.10
2018-09-02T01:10:52.708Z,24.10
2018-09-02T01:15:56.012Z,24.10
2018-09-02T01:20:59.469Z,24.10
2018-09-02T01:26:02.784Z,24.10
2018-09-02T01:31:06.122Z,24.10
2018-09-02T01:36:09.333Z,24.10
2018-09-02T01:41:12.557Z,24.10
2018-09-02T01:46:15.790Z,24.00
2018-09-02T01:51:19.014Z,24.00
2018-09-02T01:56:22.320Z,24.00
2018-09-02T02:01:25.510Z,24.00
2018-09-02T02:06:28.926Z,24.00
2018-09-02T02:11:32.460Z,24.00
2018-09-02T02:16:35.867Z,24.00
2018-09-02T02:21:40.171Z,24.00
2018-09-02T02:26:43.459Z,24.00
2018-09-02T02:31:46.618Z,24.00
2018-09-02T02:36:49.977Z,24.00
2018-09-02T02:41:53.166Z,23.90
2018-09-02T02:46:56.450Z,23.90
2018-09-02T02:52:00.943Z,23.90
2018-09-02T02:57:04.200Z,23.90
2018-09-02T03:02:07.393Z,23.90
2018-09-02T03:07:12.102Z,23.90
2018-09-02T03:12:15.341Z,23.90
2018-09-02T03:17:18.601Z,23.90
2018-09-02T03:22:21.817Z,23.90
2018-09-02T03:27:34.474Z,23.90
2018-09-02T03:32:37.685Z,23.90
2018-09-02T03:37:41.220Z,23.90
2018-09-02T03:42:44.471Z,23.90
2018-09-02T03:47:47.806Z,23.80
2018-09-02T03:52:51.013Z,23.80
2018-09-02T03:57:54.215Z,23.80
2018-09-02T04:02:57.551Z,23.80
2018-09-02T04:08:00.752Z,23.80
2018-09-02T04:13:04.013Z,23.80
2018-09-02T04:18:07.439Z,23.80
2018-09-02T04:23:10.599Z,23.80
2018-09-02T04:28:13.996Z,23.80
2018-09-02T04:33:17.230Z,23.80
2018-09-02T04:38:20.484Z,23.80
2018-09-02T04:43:23.697Z,23.80
2018-09-02T04:48:26.914Z,23.80
2018-09-02T04:53:30.132Z,23.80
2018-09-02T04:58:33.354Z,23.80
2018-09-02T05:03:37.357Z,23.80
2018-09-02T05:08:40.554Z,23.80
2018-09-02T05:13:43.884Z,23.80
2018-09-02T05:18:47.103Z,23.80
2018-09-02T05:23:50.396Z,23.80
2018-09-02T05:28:53.766Z,23.80
2018-09-02T05:33:56.949Z,23.80
2018-09-02T05:39:00.163Z,23.80
2018-09-02T05:44:03.519Z,23.80
2018-09-02T05:49:06.839Z,23.80
2018-09-02T05:54:10.441Z,23.80
2018-09-02T05:59:14.223Z,23.80
2018-09-02T06:04:17.618Z,23.80
2018-09-02T06:09:20.873Z,23.80
2018-09-02T06:14:24.239Z,23.80
2018-09-02T06:19:27.418Z,23.70
2018-09-02T06:24:30.664Z,23.80
2018-09-02T06:29:34.404Z,23.70
2018-09-02T06:34:37.834Z,23.70
2018-09-02T06:39:41.099Z,23.70
2018-09-02T06:44:44.331Z,23.70
2018-09-02T06:49:47.775Z,23.70
2018-09-02T06:54:51.204Z,23.70
2018-09-02T06:59:54.509Z,23.70
2018-09-02T07:04:58.337Z,23.80
2018-09-02T07:10:07.073Z,23.70
2018-09-02T07:15:10.595Z,23.80
2018-09-02T07:20:14.011Z,23.70
2018-09-02T07:25:17.226Z,23.70
2018-09-02T07:30:20.630Z,23.70
2018-09-02T07:35:24.047Z,23.80
2018-09-02T07:40:27.344Z,23.80
2018-09-02T07:45:30.673Z,23.80
2018-09-02T07:50:34.085Z,23.80
2018-09-02T07:55:37.401Z,23.80
2018-09-02T08:00:40.581Z,23.80
2018-09-02T08:05:43.821Z,23.80
2018-09-02T08:10:47.947Z,23.80
2018-09-02T08:15:51.362Z,23.80
2018-09-02T08:20:54.573Z,23.80
2018-09-02T08:25:58.578Z,23.80
2018-09-02T08:31:01.972Z,23.80
2018-09-02T08:36:05.318Z,23.80
2018-09-02T08:41:08.778Z,23.80
2018-09-02T08:46:12.171Z,23.80
2018-09-02T08:51:15.578Z,23.80
2018-09-02T08:56:19.001Z,23.80
2018-09-02T09:01:23.346Z,23.80
2018-09-02T09:06:27.465Z,23.80
2018-09-02T09:11:30.936Z,23.80
2018-09-02T09:16:34.914Z,23.80
2018-09-02T09:21:39.197Z,23.80
2018-09-02T09:26:42.857Z,23.80
2018-09-02T09:31:46.065Z,23.70
2018-09-02T09:36:49.546Z,23.80
2018-09-02T09:41:52.916Z,23.80
2018-09-02T09:46:56.617Z,23.80
2018-09-02T09:52:00.114Z,23.70
2018-09-02T09:57:03.543Z,23.70
2018-09-02T10:02:07.093Z,23.70
2018-09-02T10:07:10.858Z,23.70
2018-09-02T10:12:14.567Z,23.70
2018-09-02T10:17:18.257Z,23.70
2018-09-02T10:22:22.498Z,23.70
2018-09-02T10:27:25.962Z,23.70
2018-09-02T10:32:29.858Z,23.60
2018-09-02T10:37:33.449Z,23.60
2018-09-02T10:42:36.943Z,23.60
2018-09-02T10:47:40.362Z,23.60
2018-09-02T10:52:44.551Z,23.60
2018-09-02T10:57:48.334Z,23.60
2018-09-02T11:02:51.726Z,23.60
2018-09-02T11:07:55.138Z,23.60
2018-09-02T11:12:58.670Z,23.70
2018-09-02T11:18:02.531Z,23.70
2018-09-02T11:23:05.880Z,23.70
2018-09-02T11:28:10.149Z,23.70
2018-09-02T11:33:13.385Z,23.70
2018-09-02T11:38:17.083Z,23.70
2018-09-02T11:43:20.521Z,23.70
2018-09-02T11:48:24.435Z,23.70
2018-09-02T11:53:27.680Z,23.70
2018-09-02T11:58:31.044Z,23.70
2018-09-02T12:03:34.328Z,23.70
2018-09-02T12:08:37.612Z,23.70
2018-09-02T12:13:42.009Z,23.70
2018-09-02T12:18:45.309Z,23.70
2018-09-02T12:23:48.743Z,23.70
2018-09-02T12:28:52.480Z,23.70
2018-09-02T12:33:55.966Z,23.70
2018-09-02T12:38:59.794Z,23.70
2018-09-02T12:44:03.326Z,23.70
2018-09-02T12:49:06.600Z,23.70
2018-09-02T12:54:10.600Z,23.70
2018-09-02T12:59:13.798Z,23.70
2018-09-02T13:04:17.032Z,23.70
2018-09-02T13:09:20.412Z,23.70
2018-09-02T13:14:23.714Z,23.70
2018-09-02T13:19:27.009Z,23.70
2018-09-02T13:24:30.458Z,23.70
2018-09-02T13:29:33.940Z,23.70
2018-09-02T13:34:37.909Z,23.70
2018-09-02T13:39:41.488Z,23.70
2018-09-02T13:44:45.076Z,23.70
2018-09-02T13:49:48.369Z,23.70
2018-09-02T13:54:52.128Z,23.70
2018-09-02T13:59:55.598Z,23.70
2018-09-02T14:04:59.551Z,23.70
2018-09-02T14:10:03.103Z,23.70
2018-09-02T14:15:06.774Z,23.70
2018-09-02T14:20:09.990Z,23.70
2018-09-02T14:25:13.376Z,23.70
2018-09-02T14:30:17.131Z,23.70
2018-09-02T14:35:20.380Z,23.70
2018-09-02T14:40:23.923Z,23.70
2018-09-02T14:45:28.420Z,23.70
2018-09-02T14:50:31.791Z,23.70
2018-09-02T14:55:36.898Z,23.70
2018-09-02T15:00:40.330Z,23.70
2018-09-02T15:05:44.448Z,23.70
2018-09-02T15:10:48.144Z,23.70
2018-09-02T15:15:52.562Z,23.70
2018-09-02T15:20:56.000Z,23.70
2018-09-02T15:25:59.787Z,23.70
2018-09-02T15:31:03.412Z,23.70
2018-09-02T15:36:07.513Z,23.70
2018-09-02T15:41:10.813Z,23.70
2018-09-02T15:46:14.354Z,23.70
2018-09-02T15:51:17.904Z,23.70
2018-09-02T15:56:21.569Z,23.70
2018-09-02T16:01:25.154Z,23.70
2018-09-02T16:06:28.560Z,23.70
2018-09-02T16:11:33.382Z,23.70
2018-09-02T16:16:37.108Z,23.70
2018-09-02T16:21:40.397Z,23.70
2018-09-02T16:26:43.817Z,23.70
2018-09-02T16:31:47.428Z,23.70
2018-09-02T16:36:50.707Z,23.70
2018-09-02T16:41:54.279Z,23.70
2018-09-02T16:46:57.867Z,23.70
2018-09-02T16:52:01.758Z,23.70
2018-09-02T16:57:06.678Z,23.70
2018-09-02T17:02:11.994Z,23.70
2018-09-02T17:07:15.781Z,23.70
2018-09-02T17:12:19.339Z,23.70
2018-09-02T17:17:22.612Z,23.70
2018-09-02T17:22:26.284Z,23.70
2018-09-02T17:27:29.626Z,23.70
2018-09-02T17:32:33.607Z,23.70
2018-09-02T17:37:37.719Z,23.70
2018-09-02T17:42:41.184Z,23.70
2018-09-02T17:47:44.648Z,23.70
2018-09-02T17:52:48.011Z,23.70
2018-09-02T17:57:51.441Z,23.70
2018-09-02T18:02:54.940Z,23.70
2018-09-02T18:07:58.423Z,23.70
2018-09-02T18:13:01.884Z,23.70
2018-09-02T18:18:05.461Z,23.70
2018-09-02T18:23:08.989Z,23.70
2018-09-02T18:28:15.710Z,23.70
2018-09-02T18:33:19.045Z,23.70
2018-09-02T18:38:22.885Z,23.70
2018-09-02T18:43:26.322Z,23.60
2018-09-02T18:48:29.746Z,23.70
2018-09-02T18:53:33.265Z,23.70
2018-09-02T18:58:36.870Z,23.60
2018-09-02T19:03:40.200Z,23.70
2018-09-02T19:08:43.695Z,23.60
2018-09-02T19:13:47.528Z,23.60
2018-09-02T19:18:50.934Z,23.60
2018-09-02T19:23:54.280Z,23.60
2018-09-02T19:28:57.921Z,23.60
2018-09-02T19:34:01.252Z,23.60
2018-09-02T19:39:07.474Z,23.60
2018-09-02T19:44:11.098Z,23.60
2018-09-02T19:49:14.393Z,23.60
2018-09-02T19:54:17.830Z,23.60
2018-09-02T19:59:21.205Z,23.60
2018-09-02T20:04:25.031Z,23.60
2018-09-02T20:09:28.370Z,23.60
2018-09-02T20:14:31.698Z,23.60
2018-09-02T20:19:35.086Z,23.70
2018-09-02T20:24:39.344Z,23.60
2018-09-02T20:29:44.043Z,23.60
2018-09-02T20:34:47.963Z,23.60
2018-09-02T20:39:51.344Z,23.60
2018-09-02T20:44:54.713Z,23.60
2018-09-02T20:49:58.162Z,23.60
2018-09-02T20:55:01.584Z,23.60
2018-09-02T21:00:06.883Z,23.60
2018-09-02T21:05:10.188Z,23.60
2018-09-02T21:10:13.550Z,23.60
2018-09-02T21:15:16.982Z,23.60
2018-09-02T21:20:20.487Z,23.60
2018-09-02T21:25:23.980Z,23.60
2018-09-02T21:30:27.567Z,23.60
2018-09-02T21:35:32.692Z,23.60
2018-09-02T21:40:36.108Z,23.60
2018-09-02T21:45:39.387Z,23.60
2018-09-02T21:50:42.696Z,23.60
2018-09-02T21:55:46.795Z,23.60
2018-09-02T22:00:50.452Z,23.60
2018-09-02T22:05:53.826Z,23.60
2018-09-02T22:10:57.537Z,23.60
2018-09-02T22:16:00.893Z,23.60
2018-09-02T22:21:04.695Z,23.60
2018-09-02T22:26:08.036Z,23.60
2018-09-02T22:31:11.299Z,23.60
2018-09-02T22:36:14.521Z,23.60
2018-09-02T22:41:17.958Z,23.60
2018-09-02T22:46:21.897Z,23.60
2018-09-02T22:51:25.234Z,23.60
2018-09-02T22:56:28.512Z,23.60
2018-09-02T23:01:32.418Z,23.60
2018-09-02T23:06:36.003Z,23.60
2018-09-02T23:11:39.249Z,23.60
2018-09-02T23:16:42.519Z,23.60
2018-09-02T23:21:45.974Z,23.60
2018-09-02T23:26:49.573Z,23.60
2018-09-02T23:31:53.099Z,23.60
2018-09-02T23:36:56.303Z,23.60
2018-09-02T23:41:59.597Z,23.60
2018-09-02T23:47:02.895Z,23.60
2018-09-02T23:52:06.213Z,23.50
2018-09-02T23:57:09.452Z,23.60
